Time;durP1;ratioP1;P1;durP2;ratioP2;P2;SDS_P1;SDS_P2;PMS_P1;PMS_P2;Temp;Humidity;BMP_temperature;BMP_pressure;BME280_temperature;BME280_humidity;BME280_pressure;Samples;Min_cycle;Max_cycle;Signal;HPM_P1;HPM_P2
2023/12/13 00:01:55;;;;;;;5.80;3.08;;;;;;;;;;5157493;27;20046;-65
2023/12/13 00:04:24;;;;;;;5.78;2.42;;;;;;;;;;5157221;27;20055;-65
2023/12/13 00:06:52;;;;;;;4.28;2.60;;;;;;;;;;5157036;27;20049;-65
2023/12/13 00:09:19;;;;;;;3.55;2.20;;;;;;;;;;5157005;27;20057;-65
2023/12/13 00:11:45;;;;;;;6.10;3.22;;;;;;;;;;5156851;27;20062;-65
2023/12/13 00:14:12;;;;;;;3.97;2.80;;;;;;;;;;5156925;27;20395;-64
2023/12/13 00:16:39;;;;;;;4.13;2.80;;;;;;;;;;5156999;27;20043;-65
2023/12/13 00:19:06;;;;;;;4.75;2.58;;;;;;;;;;5156479;27;20051;-65
2023/12/13 00:21:33;;;;;;;4.97;2.65;;;;;;;;;;5157096;27;20053;-65
2023/12/13 00:24:01;;;;;;;5.38;2.60;;;;;;;;;;5156734;27;20047;-64
2023/12/13 00:26:28;;;;;;;5.22;2.83;;;;;;;;;;5156696;27;20054;-65
2023/12/13 00:28:55;;;;;;;6.28;2.97;;;;;;;;;;5156655;27;20055;-65
2023/12/13 00:31:21;;;;;;;4.50;2.92;;;;;;;;;;5157286;27;20046;-65
2023/12/13 00:33:48;;;;;;;7.85;2.80;;;;;;;;;;5156936;27;20054;-65
2023/12/13 00:36:15;;;;;;;7.28;3.50;;;;;;;;;;5156959;27;20407;-65
2023/12/13 00:38:42;;;;;;;7.03;3.30;;;;;;;;;;5156447;27;20051;-65
2023/12/13 00:41:10;;;;;;;6.40;3.67;;;;;;;;;;5156762;27;20051;-65
2023/12/13 00:43:37;;;;;;;5.72;3.60;;;;;;;;;;5156677;27;20127;-65
2023/12/13 00:46:04;;;;;;;7.70;4.60;;;;;;;;;;5156837;27;20510;-65
2023/12/13 00:48:32;;;;;;;10.45;5.13;;;;;;;;;;5156461;27;20479;-65
2023/12/13 00:50:58;;;;;;;9.85;4.65;;;;;;;;;;5157021;27;20392;-64
2023/12/13 00:53:26;;;;;;;8.60;4.43;;;;;;;;;;5156481;27;20066;-64
2023/12/13 00:55:53;;;;;;;10.85;5.38;;;;;;;;;;5155371;27;20055;-64
2023/12/13 00:58:21;;;;;;;11.13;5.57;;;;;;;;;;5156266;27;20058;-64
2023/12/13 01:00:48;;;;;;;8.20;4.75;;;;;;;;;;5156708;27;20051;-64
2023/12/13 01:03:15;;;;;;;8.65;5.32;;;;;;;;;;5155852;27;20462;-64
2023/12/13 01:05:42;;;;;;;9.23;5.88;;;;;;;;;;5155810;27;20051;-64
2023/12/13 01:08:09;;;;;;;8.57;5.38;;;;;;;;;;5155849;27;20058;-64
2023/12/13 01:10:35;;;;;;;7.82;4.82;;;;;;;;;;5154610;27;20065;-65
2023/12/13 01:13:02;;;;;;;7.03;4.45;;;;;;;;;;5150529;27;20057;-65
2023/12/13 01:15:30;;;;;;;10.52;5.30;;;;;;;;;;5134827;27;20058;-65
2023/12/13 01:17:57;;;;;;;10.70;4.88;;;;;;;;;;5134901;27;20391;-63
2023/12/13 01:20:24;;;;;;;6.30;4.00;;;;;;;;;;5134858;27;20160;-64
2023/12/13 01:22:50;;;;;;;7.97;4.68;;;;;;;;;;5134642;27;20050;-64
2023/12/13 01:25:17;;;;;;;9.43;4.57;;;;;;;;;;5146264;27;20047;-64
2023/12/13 01:27:44;;;;;;;7.75;4.07;;;;;;;;;;5155744;27;20050;-64
2023/12/13 01:30:11;;;;;;;5.78;3.53;;;;;;;;;;5155781;27;20057;-64
2023/12/13 01:32:39;;;;;;;8.25;3.40;;;;;;;;;;5155474;27;20046;-64
2023/12/13 01:35:06;;;;;;;7.38;3.60;;;;;;;;;;5155830;27;20058;-64
2023/12/13 01:37:33;;;;;;;7.18;3.45;;;;;;;;;;5155203;27;20046;-65
2023/12/13 01:40:00;;;;;;;6.43;3.53;;;;;;;;;;5155541;27;20054;-64
2023/12/13 01:42:27;;;;;;;6.70;3.95;;;;;;;;;;5155348;27;20134;-65
2023/12/13 01:44:53;;;;;;;8.23;3.80;;;;;;;;;;5154826;27;20050;-64
2023/12/13 01:47:20;;;;;;;6.18;3.97;;;;;;;;;;5155086;27;20494;-64
2023/12/13 01:49:48;;;;;;;7.10;3.45;;;;;;;;;;5155210;27;20062;-65
2023/12/13 01:52:15;;;;;;;6.57;3.75;;;;;;;;;;5155131;27;20221;-64
2023/12/13 01:54:42;;;;;;;5.30;4.10;;;;;;;;;;5155265;27;20053;-64
2023/12/13 01:57:09;;;;;;;7.82;3.97;;;;;;;;;;5154889;27;20054;-64
2023/12/13 01:59:36;;;;;;;7.45;3.67;;;;;;;;;;5154981;27;20506;-64
2023/12/13 02:02:03;;;;;;;10.20;3.75;;;;;;;;;;5154865;27;20054;-64
2023/12/13 02:04:30;;;;;;;7.38;3.30;;;;;;;;;;5155004;27;20463;-65
2023/12/13 02:06:59;;;;;;;8.68;3.28;;;;;;;;;;5154818;27;20403;-64
2023/12/13 02:09:25;;;;;;;7.88;3.30;;;;;;;;;;5154747;27;20054;-65
2023/12/13 02:11:52;;;;;;;6.10;3.00;;;;;;;;;;5154505;27;20047;-65
2023/12/13 02:14:19;;;;;;;4.47;2.90;;;;;;;;;;5154563;27;20055;-64
2023/12/13 02:16:46;;;;;;;8.15;3.67;;;;;;;;;;5154671;27;20054;-64
2023/12/13 02:19:13;;;;;;;8.60;3.90;;;;;;;;;;5154642;27;20065;-64
2023/12/13 02:21:39;;;;;;;5.00;2.83;;;;;;;;;;5154303;27;20053;-64
2023/12/13 02:24:08;;;;;;;7.88;3.70;;;;;;;;;;5153986;27;20054;-64
2023/12/13 02:26:37;;;;;;;6.45;3.03;;;;;;;;;;5154877;27;20050;-64
2023/12/13 02:29:04;;;;;;;7.43;3.50;;;;;;;;;;5154482;27;20113;-64
2023/12/13 02:31:31;;;;;;;7.82;3.35;;;;;;;;;;5154686;27;20050;-65
2023/12/13 02:33:58;;;;;;;6.28;3.03;;;;;;;;;;5154438;27;20058;-65
2023/12/13 02:36:24;;;;;;;6.43;2.88;;;;;;;;;;5154565;27;20399;-64
2023/12/13 02:38:51;;;;;;;7.93;2.88;;;;;;;;;;5154276;27;20058;-64
2023/12/13 02:41:19;;;;;;;5.10;2.63;;;;;;;;;;5154710;27;20054;-65
2023/12/13 02:43:46;;;;;;;7.45;3.25;;;;;;;;;;5154354;27;20537;-64
2023/12/13 02:46:13;;;;;;;6.05;2.78;;;;;;;;;;5154446;27;20055;-64
2023/12/13 02:48:40;;;;;;;5.53;2.22;;;;;;;;;;5154333;27;20049;-64
2023/12/13 02:51:08;;;;;;;6.38;2.58;;;;;;;;;;5154290;27;20399;-64
2023/12/13 02:53:35;;;;;;;5.03;2.55;;;;;;;;;;5154124;27;20053;-63
2023/12/13 02:56:02;;;;;;;5.63;2.75;;;;;;;;;;5154221;27;20062;-64
2023/12/13 02:58:30;;;;;;;4.63;2.55;;;;;;;;;;5153797;27;20047;-64
2023/12/13 03:00:57;;;;;;;8.15;2.92;;;;;;;;;;5154083;27;20062;-64
2023/12/13 03:03:24;;;;;;;7.10;2.80;;;;;;;;;;5153741;27;20054;-64
2023/12/13 03:05:50;;;;;;;7.85;3.15;;;;;;;;;;5154337;27;20051;-64
2023/12/13 03:08:17;;;;;;;5.57;2.90;;;;;;;;;;5154005;27;20043;-64
2023/12/13 03:10:44;;;;;;;6.45;3.03;;;;;;;;;;5154306;27;20391;-63
2023/12/13 03:13:11;;;;;;;6.72;2.33;;;;;;;;;;5153599;27;20054;-64
2023/12/13 03:15:39;;;;;;;5.78;2.55;;;;;;;;;;5154044;27;20046;-64
2023/12/13 03:18:06;;;;;;;6.38;2.85;;;;;;;;;;5153741;27;20050;-64
2023/12/13 03:20:33;;;;;;;8.32;3.47;;;;;;;;;;5158346;27;20468;-64
2023/12/13 03:23:03;;;;;;;5.55;2.85;;;;;;;;;;5158034;27;20050;-64
2023/12/13 03:25:29;;;;;;;5.47;3.13;;;;;;;;;;5157968;27;20054;-64
2023/12/13 03:27:56;;;;;;;7.05;2.85;;;;;;;;;;5157891;27;20051;-64
2023/12/13 03:30:23;;;;;;;5.53;2.63;;;;;;;;;;5158065;27;20057;-64
2023/12/13 03:32:51;;;;;;;4.93;2.35;;;;;;;;;;5158132;27;20498;-64
2023/12/13 03:35:18;;;;;;;5.82;2.53;;;;;;;;;;5157888;27;20050;-64
2023/12/13 03:37:45;;;;;;;5.75;2.22;;;;;;;;;;5157615;27;20058;-64
2023/12/13 03:40:12;;;;;;;7.10;3.22;;;;;;;;;;5157716;27;20051;-64
2023/12/13 03:42:39;;;;;;;5.63;2.50;;;;;;;;;;5157954;27;20057;-64
2023/12/13 03:45:06;;;;;;;7.95;2.40;;;;;;;;;;5157776;27;20065;-64
2023/12/13 03:47:33;;;;;;;6.05;2.78;;;;;;;;;;5157613;27;20055;-65
2023/12/13 03:50:01;;;;;;;5.18;2.10;;;;;;;;;;5157510;27;20046;-64
2023/12/13 03:52:28;;;;;;;5.18;1.90;;;;;;;;;;5157480;27;20050;-64
2023/12/13 03:54:55;;;;;;;4.85;2.25;;;;;;;;;;5157516;27;20483;-64
2023/12/13 03:57:22;;;;;;;5.53;2.50;;;;;;;;;;5157675;27;20062;-64
2023/12/13 03:59:49;;;;;;;5.28;2.10;;;;;;;;;;5157456;27;20120;-64
2023/12/13 04:02:16;;;;;;;4.00;2.40;;;;;;;;;;5157200;27;20057;-64
2023/12/13 04:04:43;;;;;;;4.43;2.47;;;;;;;;;;5157416;27;20058;-64
2023/12/13 04:07:11;;;;;;;4.38;2.30;;;;;;;;;;5157165;27;20050;-64
2023/12/13 04:09:38;;;;;;;4.82;2.58;;;;;;;;;;5157114;27;20150;-64
2023/12/13 04:12:05;;;;;;;7.22;2.10;;;;;;;;;;5157376;27;20051;-64
2023/12/13 04:14:32;;;;;;;5.72;2.50;;;;;;;;;;5157238;27;20054;-63
2023/12/13 04:16:59;;;;;;;5.60;2.88;;;;;;;;;;5156933;27;20050;-63
2023/12/13 04:19:25;;;;;;;4.35;1.98;;;;;;;;;;5156949;27;20050;-63
2023/12/13 04:21:52;;;;;;;3.60;2.20;;;;;;;;;;5156771;27;20047;-64
2023/12/13 04:24:20;;;;;;;4.32;2.20;;;;;;;;;;5156752;27;20050;-63
2023/12/13 04:26:47;;;;;;;5.43;3.00;;;;;;;;;;5156888;27;20054;-64
2023/12/13 04:29:14;;;;;;;8.13;3.40;;;;;;;;;;5156664;27;20046;-63
2023/12/13 04:31:42;;;;;;;6.30;3.75;;;;;;;;;;5156672;27;20402;-63
2023/12/13 04:34:08;;;;;;;6.78;3.00;;;;;;;;;;5156435;27;20407;-63
2023/12/13 04:36:35;;;;;;;9.15;4.25;;;;;;;;;;5156637;27;20062;-63
2023/12/13 04:39:03;;;;;;;7.85;3.58;;;;;;;;;;5156324;27;20051;-63
2023/12/13 04:41:32;;;;;;;7.88;3.70;;;;;;;;;;5156620;27;20050;-63
2023/12/13 04:43:59;;;;;;;8.88;4.15;;;;;;;;;;5156779;27;20051;-63
2023/12/13 04:46:26;;;;;;;6.28;3.33;;;;;;;;;;5156568;27;20055;-63
2023/12/13 04:48:53;;;;;;;9.05;3.58;;;;;;;;;;5156173;27;20050;-64
2023/12/13 04:51:20;;;;;;;6.05;3.25;;;;;;;;;;5156551;27;20047;-63
2023/12/13 04:53:46;;;;;;;7.80;3.90;;;;;;;;;;5156514;27;20050;-63
2023/12/13 04:56:13;;;;;;;8.60;2.95;;;;;;;;;;5155781;27;20047;-63
2023/12/13 04:58:42;;;;;;;8.45;3.30;;;;;;;;;;5156225;27;20058;-63
2023/12/13 05:01:08;;;;;;;10.25;3.50;;;;;;;;;;5156174;27;20046;-63
2023/12/13 05:03:34;;;;;;;6.63;2.90;;;;;;;;;;5155881;27;20395;-64
2023/12/13 05:06:01;;;;;;;8.98;3.22;;;;;;;;;;5156156;27;20050;-64
2023/12/13 05:08:30;;;;;;;6.32;2.80;;;;;;;;;;5155630;27;20061;-66
2023/12/13 05:10:58;;;;;;;6.82;3.05;;;;;;;;;;5156444;27;20057;-64
2023/12/13 05:13:25;;;;;;;7.68;3.20;;;;;;;;;;5155940;27;20051;-64
2023/12/13 05:15:53;;;;;;;7.65;2.97;;;;;;;;;;5156130;27;20104;-64
2023/12/13 05:18:20;;;;;;;5.40;2.50;;;;;;;;;;5155864;27;20407;-64
2023/12/13 05:20:48;;;;;;;7.68;3.00;;;;;;;;;;5155912;27;20513;-64
2023/12/13 05:23:15;;;;;;;7.00;2.80;;;;;;;;;;5155869;27;20055;-65
2023/12/13 05:25:42;;;;;;;9.05;3.30;;;;;;;;;;5155824;27;20050;-65
2023/12/13 05:28:09;;;;;;;7.05;3.42;;;;;;;;;;5155543;27;20061;-64
2023/12/13 05:30:36;;;;;;;6.97;3.83;;;;;;;;;;5156041;27;20053;-64
2023/12/13 05:33:05;;;;;;;14.15;4.38;;;;;;;;;;5155631;27;20055;-65
2023/12/13 05:35:32;;;;;;;8.88;4.50;;;;;;;;;;5155897;27;20057;-65
2023/12/13 05:37:59;;;;;;;16.83;4.97;;;;;;;;;;5155577;27;20055;-65
2023/12/13 05:40:26;;;;;;;9.02;3.83;;;;;;;;;;5155196;27;20043;-64
2023/12/13 05:42:54;;;;;;;11.00;4.63;;;;;;;;;;5154997;27;20055;-64
2023/12/13 05:45:21;;;;;;;10.57;4.22;;;;;;;;;;5155440;27;20047;-64
2023/12/13 05:47:48;;;;;;;15.80;7.60;;;;;;;;;;5155024;27;20522;-65
2023/12/13 05:50:17;;;;;;;11.30;4.38;;;;;;;;;;5154897;27;20426;-66
2023/12/13 05:52:44;;;;;;;13.75;5.20;;;;;;;;;;5155046;27;20403;-65
2023/12/13 05:55:11;;;;;;;13.15;5.68;;;;;;;;;;5155012;27;20514;-65
2023/12/13 05:57:37;;;;;;;18.80;7.82;;;;;;;;;;5155226;27;20388;-65
2023/12/13 06:00:06;;;;;;;18.85;8.13;;;;;;;;;;5155077;27;20384;-65
2023/12/13 06:02:33;;;;;;;19.60;8.27;;;;;;;;;;5154501;27;20071;-64
2023/12/13 06:05:00;;;;;;;13.32;6.80;;;;;;;;;;5154846;27;20054;-65
2023/12/13 06:07:28;;;;;;;12.32;5.50;;;;;;;;;;5154325;27;20054;-64
2023/12/13 06:09:55;;;;;;;11.88;5.80;;;;;;;;;;5154587;27;20402;-64
2023/12/13 06:12:22;;;;;;;12.80;5.55;;;;;;;;;;5154627;27;20050;-64
2023/12/13 06:14:49;;;;;;;11.98;5.22;;;;;;;;;;5154493;27;20047;-64
2023/12/13 06:17:16;;;;;;;8.80;4.28;;;;;;;;;;5154855;27;20407;-64
2023/12/13 06:19:42;;;;;;;11.75;4.20;;;;;;;;;;5154519;27;20055;-64
2023/12/13 06:22:10;;;;;;;8.43;5.28;;;;;;;;;;5154716;27;20054;-64
2023/12/13 06:24:38;;;;;;;12.43;5.38;;;;;;;;;;5154365;27;20051;-65
2023/12/13 06:27:05;;;;;;;8.25;4.03;;;;;;;;;;5154643;27;20062;-64
2023/12/13 06:29:32;;;;;;;8.90;3.25;;;;;;;;;;5154404;27;20047;-64
2023/12/13 06:31:59;;;;;;;9.48;3.70;;;;;;;;;;5154388;27;20057;-64
2023/12/13 06:34:25;;;;;;;10.00;3.40;;;;;;;;;;5154336;27;20057;-65
2023/12/13 06:36:52;;;;;;;8.90;3.83;;;;;;;;;;5154501;27;20057;-64
2023/12/13 06:39:19;;;;;;;9.90;4.55;;;;;;;;;;5154288;27;20050;-64
2023/12/13 06:41:47;;;;;;;8.90;4.03;;;;;;;;;;5154179;27;20042;-65
2023/12/13 06:44:14;;;;;;;6.45;3.60;;;;;;;;;;5153599;27;20051;-65
2023/12/13 06:46:41;;;;;;;8.80;4.40;;;;;;;;;;5154118;27;20054;-64
2023/12/13 06:49:09;;;;;;;8.40;3.00;;;;;;;;;;5153949;27;20062;-65
2023/12/13 06:51:36;;;;;;;7.75;3.75;;;;;;;;;;5153939;27;20073;-65
2023/12/13 06:54:03;;;;;;;7.95;3.78;;;;;;;;;;5153994;27;20058;-64
2023/12/13 06:56:30;;;;;;;10.32;3.65;;;;;;;;;;5154221;27;20054;-64
2023/12/13 06:59:00;;;;;;;9.52;3.53;;;;;;;;;;5154062;27;20415;-64
2023/12/13 07:01:26;;;;;;;8.40;3.67;;;;;;;;;;5153720;27;20042;-65
2023/12/13 07:03:53;;;;;;;6.97;3.45;;;;;;;;;;5153883;27;20055;-64
2023/12/13 07:06:20;;;;;;;14.75;3.45;;;;;;;;;;5154332;27;20059;-65
2023/12/13 07:08:47;;;;;;;9.43;4.40;;;;;;;;;;5154152;27;20403;-65
2023/12/13 07:11:14;;;;;;;10.80;3.65;;;;;;;;;;5154331;27;20043;-65
2023/12/13 07:13:40;;;;;;;8.32;3.25;;;;;;;;;;5153941;27;20047;-65
2023/12/13 07:16:09;;;;;;;7.13;3.08;;;;;;;;;;5154232;27;20074;-64
2023/12/13 07:18:36;;;;;;;9.88;3.10;;;;;;;;;;5153609;27;20050;-64
2023/12/13 07:21:03;;;;;;;8.05;3.35;;;;;;;;;;5153971;27;20047;-63
2023/12/13 07:23:31;;;;;;;9.13;3.28;;;;;;;;;;5153823;27;20058;-64
2023/12/13 07:25:58;;;;;;;7.35;2.80;;;;;;;;;;5153441;27;20062;-64
2023/12/13 07:28:25;;;;;;;8.95;2.83;;;;;;;;;;5153801;27;20058;-65
2023/12/13 07:30:52;;;;;;;7.47;2.90;;;;;;;;;;5153835;27;20459;-64
2023/12/13 07:33:20;;;;;;;6.70;3.03;;;;;;;;;;5153464;27;20415;-64
2023/12/13 07:35:47;;;;;;;9.20;3.25;;;;;;;;;;5153781;27;20057;-64
2023/12/13 07:38:14;;;;;;;7.70;3.00;;;;;;;;;;5153777;27;20054;-64
2023/12/13 07:40:44;;;;;;;7.22;3.10;;;;;;;;;;5154033;27;20047;-66
2023/12/13 07:43:10;;;;;;;12.20;3.60;;;;;;;;;;5154046;27;20483;-64
2023/12/13 07:45:38;;;;;;;8.80;2.92;;;;;;;;;;5153472;27;20047;-64
2023/12/13 07:48:05;;;;;;;7.68;3.20;;;;;;;;;;5153622;27;20054;-64
2023/12/13 07:50:33;;;;;;;11.88;3.05;;;;;;;;;;5153726;27;20043;-64
2023/12/13 07:53:00;;;;;;;11.13;3.80;;;;;;;;;;5153786;27;20402;-65
2023/12/13 07:55:27;;;;;;;7.80;2.95;;;;;;;;;;5153855;27;20054;-64
2023/12/13 07:57:54;;;;;;;13.75;4.13;;;;;;;;;;5153901;27;20046;-64
2023/12/13 08:00:22;;;;;;;11.18;3.05;;;;;;;;;;5153669;27;20058;-64
2023/12/13 08:02:49;;;;;;;9.13;3.20;;;;;;;;;;5153354;27;20062;-64
2023/12/13 08:05:16;;;;;;;9.60;3.45;;;;;;;;;;5155660;27;20407;-64
2023/12/13 08:07:44;;;;;;;5.50;2.65;;;;;;;;;;5157632;27;20058;-64
2023/12/13 08:10:11;;;;;;;10.25;3.20;;;;;;;;;;5156913;27;20524;-66
2023/12/13 08:12:38;;;;;;;8.82;3.08;;;;;;;;;;5157285;27;20051;-64
2023/12/13 08:15:05;;;;;;;11.57;3.70;;;;;;;;;;5157044;27;20475;-64
2023/12/13 08:17:33;;;;;;;10.65;3.80;;;;;;;;;;5156937;27;20053;-64
2023/12/13 08:20:00;;;;;;;10.63;4.28;;;;;;;;;;5156862;27;20063;-64
2023/12/13 08:22:27;;;;;;;15.38;4.72;;;;;;;;;;5156937;27;20057;-64
2023/12/13 08:24:55;;;;;;;8.55;3.15;;;;;;;;;;5156838;27;20402;-64
2023/12/13 08:27:22;;;;;;;7.70;3.28;;;;;;;;;;5157070;27;20062;-64
2023/12/13 08:29:49;;;;;;;11.85;3.55;;;;;;;;;;5157023;27;20054;-64
2023/12/13 08:32:16;;;;;;;5.00;2.50;;;;;;;;;;5156800;27;20046;-64
2023/12/13 08:34:42;;;;;;;6.60;2.25;;;;;;;;;;5156633;27;20475;-64
2023/12/13 08:37:09;;;;;;;5.57;2.08;;;;;;;;;;5156498;27;20047;-64
2023/12/13 08:39:36;;;;;;;10.60;2.60;;;;;;;;;;5156816;27;20050;-64
2023/12/13 08:42:04;;;;;;;8.55;2.70;;;;;;;;;;5156497;27;20403;-64
2023/12/13 08:44:31;;;;;;;9.38;3.92;;;;;;;;;;5156488;27;20047;-64
2023/12/13 08:46:58;;;;;;;8.80;3.78;;;;;;;;;;5156450;27;20058;-64
2023/12/13 08:49:27;;;;;;;6.07;2.97;;;;;;;;;;5156057;27;20062;-64
2023/12/13 08:51:54;;;;;;;7.80;3.20;;;;;;;;;;5156544;27;20054;-65
2023/12/13 08:54:20;;;;;;;9.00;2.88;;;;;;;;;;5155925;27;20487;-64
2023/12/13 08:56:47;;;;;;;9.70;3.72;;;;;;;;;;5156021;27;20047;-63
2023/12/13 08:59:15;;;;;;;9.30;2.65;;;;;;;;;;5156000;27;20061;-64
2023/12/13 09:01:42;;;;;;;6.28;2.58;;;;;;;;;;5154273;27;20476;-64
2023/12/13 09:04:09;;;;;;;9.98;2.75;;;;;;;;;;5135442;27;20047;-64
2023/12/13 09:06:36;;;;;;;9.43;3.17;;;;;;;;;;5135338;27;20047;-64
2023/12/13 09:09:04;;;;;;;7.72;2.38;;;;;;;;;;5135326;27;20503;-64
2023/12/13 09:11:31;;;;;;;7.93;2.67;;;;;;;;;;5135391;27;20047;-64
2023/12/13 09:13:58;;;;;;;8.27;2.50;;;;;;;;;;5135503;27;20050;-64
2023/12/13 09:16:26;;;;;;;5.50;2.58;;;;;;;;;;5134178;27;20051;-64
2023/12/13 09:18:53;;;;;;;7.40;2.30;;;;;;;;;;5134969;27;20058;-63
2023/12/13 09:21:20;;;;;;;7.82;2.92;;;;;;;;;;5135300;27;20050;-64
2023/12/13 09:23:47;;;;;;;7.40;2.20;;;;;;;;;;5134495;27;20043;-64
2023/12/13 09:26:14;;;;;;;7.40;2.58;;;;;;;;;;5135013;27;20054;-65
2023/12/13 09:28:41;;;;;;;6.20;2.20;;;;;;;;;;5135502;27;20058;-64
2023/12/13 09:31:08;;;;;;;7.18;2.33;;;;;;;;;;5134725;27;20050;-64
2023/12/13 09:33:36;;;;;;;8.98;2.42;;;;;;;;;;5134867;27;20046;-64
2023/12/13 09:36:03;;;;;;;7.57;2.10;;;;;;;;;;5134875;27;20385;-64
2023/12/13 09:38:31;;;;;;;5.40;2.05;;;;;;;;;;5134716;27;20527;-64
2023/12/13 09:40:58;;;;;;;7.30;2.15;;;;;;;;;;5134901;27;20373;-64
2023/12/13 09:43:25;;;;;;;10.38;2.55;;;;;;;;;;5134166;27;20051;-64
2023/12/13 09:45:53;;;;;;;6.85;1.80;;;;;;;;;;5134840;27;20482;-63
2023/12/13 09:48:22;;;;;;;7.18;2.17;;;;;;;;;;5134860;27;20503;-64
2023/12/13 09:50:52;;;;;;;6.60;2.13;;;;;;;;;;5134675;27;20395;-64
2023/12/13 09:53:20;;;;;;;6.38;1.90;;;;;;;;;;5134625;27;20415;-64
2023/12/13 09:55:47;;;;;;;6.55;2.10;;;;;;;;;;5133753;27;20514;-64
2023/12/13 09:58:14;;;;;;;7.18;2.00;;;;;;;;;;5134512;27;20067;-64
2023/12/13 10:00:41;;;;;;;7.35;2.40;;;;;;;;;;5134786;27;20051;-64
2023/12/13 10:03:08;;;;;;;7.47;2.20;;;;;;;;;;5133668;27;20062;-64
2023/12/13 10:05:39;;;;;;;8.10;2.03;;;;;;;;;;5134155;27;20047;-64
2023/12/13 10:08:09;;;;;;;6.38;2.00;;;;;;;;;;5134396;27;20047;-64
2023/12/13 10:10:36;;;;;;;7.45;2.20;;;;;;;;;;5134425;27;20054;-64
2023/12/13 10:13:02;;;;;;;7.30;2.33;;;;;;;;;;5134353;27;20047;-64
2023/12/13 10:15:30;;;;;;;7.07;2.13;;;;;;;;;;5134036;27;20569;-64
2023/12/13 10:17:58;;;;;;;10.80;2.47;;;;;;;;;;5133870;27;20054;-64
2023/12/13 10:20:24;;;;;;;7.60;2.40;;;;;;;;;;5134076;27;20051;-64
2023/12/13 10:22:51;;;;;;;7.80;2.53;;;;;;;;;;5133379;27;20516;-64
2023/12/13 10:25:21;;;;;;;7.13;2.25;;;;;;;;;;5133612;27;20404;-64
2023/12/13 10:27:48;;;;;;;6.80;2.28;;;;;;;;;;5133777;27;20431;-65
2023/12/13 10:30:15;;;;;;;7.20;2.03;;;;;;;;;;5133830;27;20051;-64
2023/12/13 10:32:41;;;;;;;5.72;2.30;;;;;;;;;;5133299;27;20047;-65
2023/12/13 10:35:09;;;;;;;6.13;2.10;;;;;;;;;;5133282;27;20066;-65
2023/12/13 10:37:36;;;;;;;9.02;2.85;;;;;;;;;;5133087;27;20047;-64
2023/12/13 10:40:04;;;;;;;6.03;2.20;;;;;;;;;;5133288;27;20051;-65
2023/12/13 10:42:32;;;;;;;8.43;2.70;;;;;;;;;;5133766;27;20371;-65
2023/12/13 10:45:01;;;;;;;8.75;2.55;;;;;;;;;;5133268;27;20047;-64
2023/12/13 10:47:28;;;;;;;6.30;2.33;;;;;;;;;;5133304;27;20472;-65
2023/12/13 10:49:56;;;;;;;5.72;2.30;;;;;;;;;;5133696;27;20051;-65
2023/12/13 10:52:26;;;;;;;6.60;2.38;;;;;;;;;;5133181;27;20051;-64
2023/12/13 10:54:53;;;;;;;9.48;2.20;;;;;;;;;;5133296;27;20058;-65
2023/12/13 10:57:19;;;;;;;4.88;2.30;;;;;;;;;;5133488;27;20055;-63
2023/12/13 10:59:48;;;;;;;6.55;2.58;;;;;;;;;;5133295;27;20376;-63
2023/12/13 11:02:17;;;;;;;7.53;2.63;;;;;;;;;;5133367;28;20393;-64
2023/12/13 11:04:44;;;;;;;7.47;2.55;;;;;;;;;;5133243;28;20058;-64
2023/12/13 11:07:11;;;;;;;5.70;2.08;;;;;;;;;;5133433;28;20073;-64
2023/12/13 11:09:48;;;;;;;8.13;2.58;;;;;;;;;;5132941;27;20051;-64
2023/12/13 11:12:18;;;;;;;5.95;2.28;;;;;;;;;;5133626;27;20070;-64
2023/12/13 11:14:49;;;;;;;7.60;2.45;;;;;;;;;;5133536;27;20059;-64
2023/12/13 11:17:16;;;;;;;6.05;1.73;;;;;;;;;;5133487;27;20051;-65
2023/12/13 11:19:42;;;;;;;4.78;1.80;;;;;;;;;;5133503;27;20507;-65
2023/12/13 11:22:11;;;;;;;3.75;1.88;;;;;;;;;;5133073;27;20051;-65
2023/12/13 11:24:40;;;;;;;6.05;2.40;;;;;;;;;;5133200;27;20058;-65
2023/12/13 11:27:10;;;;;;;5.93;2.22;;;;;;;;;;5133237;27;20047;-65
2023/12/13 11:29:37;;;;;;;10.15;2.92;;;;;;;;;;5133258;27;20051;-65
2023/12/13 11:32:05;;;;;;;7.70;2.22;;;;;;;;;;5132753;27;20058;-65
2023/12/13 11:34:33;;;;;;;4.63;1.80;;;;;;;;;;5132805;27;20062;-65
2023/12/13 11:37:00;;;;;;;5.68;2.00;;;;;;;;;;5133325;27;20367;-65
2023/12/13 11:39:27;;;;;;;6.95;2.00;;;;;;;;;;5133889;27;20055;-65
2023/12/13 11:41:54;;;;;;;6.18;2.25;;;;;;;;;;5136862;27;20070;-65
2023/12/13 11:44:21;;;;;;;6.13;2.28;;;;;;;;;;5137103;27;20068;-64
2023/12/13 11:46:53;;;;;;;5.30;2.20;;;;;;;;;;5136973;27;20059;-64
2023/12/13 11:49:21;;;;;;;4.53;1.70;;;;;;;;;;5136680;27;20408;-64
2023/12/13 11:51:48;;;;;;;6.47;2.20;;;;;;;;;;5136859;27;20051;-64
2023/12/13 11:54:15;;;;;;;5.88;2.10;;;;;;;;;;5136608;27;20062;-65
2023/12/13 11:56:42;;;;;;;8.90;2.80;;;;;;;;;;5137220;27;20051;-64
2023/12/13 11:59:09;;;;;;;7.53;2.17;;;;;;;;;;5136624;27;20058;-64
2023/12/13 12:01:36;;;;;;;8.30;3.33;;;;;;;;;;5136332;27;20055;-64
2023/12/13 12:04:03;;;;;;;4.68;2.28;;;;;;;;;;5136570;27;20055;-65
2023/12/13 12:06:31;;;;;;;7.80;2.55;;;;;;;;;;5136886;27;20051;-64
2023/12/13 12:09:00;;;;;;;9.57;2.10;;;;;;;;;;5136926;27;20054;-64
2023/12/13 12:11:27;;;;;;;6.30;1.90;;;;;;;;;;5136651;27;20078;-64
2023/12/13 12:13:55;;;;;;;5.35;2.22;;;;;;;;;;5136141;27;20050;-64
2023/12/13 12:16:22;;;;;;;5.72;2.35;;;;;;;;;;5136140;27;20054;-64
2023/12/13 12:18:49;;;;;;;6.63;2.70;;;;;;;;;;5136521;27;20047;-65
2023/12/13 12:21:15;;;;;;;6.65;2.80;;;;;;;;;;5136407;27;20058;-65
2023/12/13 12:23:44;;;;;;;5.18;2.22;;;;;;;;;;5136255;27;20058;-65
2023/12/13 12:26:12;;;;;;;6.45;2.53;;;;;;;;;;5136298;27;20408;-65
2023/12/13 12:28:40;;;;;;;5.95;2.47;;;;;;;;;;5135924;27;20058;-65
2023/12/13 12:31:08;;;;;;;7.28;2.50;;;;;;;;;;5135903;27;20054;-65
2023/12/13 12:33:35;;;;;;;6.75;2.38;;;;;;;;;;5136279;27;20055;-64
2023/12/13 12:36:01;;;;;;;5.97;2.42;;;;;;;;;;5136132;27;20400;-65
2023/12/13 12:38:28;;;;;;;8.57;2.40;;;;;;;;;;5135745;27;20050;-65
2023/12/13 12:40:56;;;;;;;6.20;2.42;;;;;;;;;;5136166;27;20058;-65
2023/12/13 12:43:24;;;;;;;5.95;2.67;;;;;;;;;;5135813;27;20047;-64
2023/12/13 12:45:51;;;;;;;13.45;2.95;;;;;;;;;;5136098;27;20404;-64
2023/12/13 12:48:18;;;;;;;10.57;3.20;;;;;;;;;;5136040;27;20055;-64
2023/12/13 12:50:45;;;;;;;7.90;2.88;;;;;;;;;;5135671;27;20050;-65
2023/12/13 12:53:13;;;;;;;6.07;2.97;;;;;;;;;;5135641;27;20051;-64
2023/12/13 12:55:40;;;;;;;7.05;3.70;;;;;;;;;;5135377;27;20051;-64
2023/12/13 12:58:09;;;;;;;8.82;3.00;;;;;;;;;;5135853;27;20051;-64
2023/12/13 13:00:35;;;;;;;5.07;2.85;;;;;;;;;;5135989;27;20058;-64
2023/12/13 13:03:04;;;;;;;6.32;2.67;;;;;;;;;;5135114;27;20411;-64
2023/12/13 13:05:32;;;;;;;7.22;3.10;;;;;;;;;;5135318;27;20051;-64
2023/12/13 13:07:59;;;;;;;10.73;3.42;;;;;;;;;;5135272;27;20436;-64
2023/12/13 13:10:26;;;;;;;7.97;2.80;;;;;;;;;;5135066;27;20058;-64
2023/12/13 13:12:53;;;;;;;10.18;3.03;;;;;;;;;;5135445;27;20050;-64
2023/12/13 13:15:23;;;;;;;9.52;3.28;;;;;;;;;;5135176;27;20062;-64
2023/12/13 13:17:50;;;;;;;6.35;2.92;;;;;;;;;;5134946;27;20062;-64
2023/12/13 13:20:18;;;;;;;8.35;3.22;;;;;;;;;;5135241;27;20047;-64
2023/12/13 13:22:46;;;;;;;5.32;2.80;;;;;;;;;;5134817;27;20054;-64
2023/12/13 13:25:13;;;;;;;6.97;2.53;;;;;;;;;;5134723;27;20503;-64
2023/12/13 13:27:40;;;;;;;7.43;2.90;;;;;;;;;;5134751;27;20047;-64
2023/12/13 13:30:07;;;;;;;5.63;2.90;;;;;;;;;;5135004;27;20047;-64
2023/12/13 13:32:36;;;;;;;6.32;2.70;;;;;;;;;;5134691;27;20051;-64
2023/12/13 13:35:04;;;;;;;8.80;2.60;;;;;;;;;;5134970;27;20051;-64
2023/12/13 13:37:31;;;;;;;9.32;2.97;;;;;;;;;;5134862;27;20051;-64
2023/12/13 13:39:58;;;;;;;6.30;2.78;;;;;;;;;;5134399;27;20051;-64
2023/12/13 13:42:25;;;;;;;7.07;2.90;;;;;;;;;;5134910;27;20061;-64
2023/12/13 13:44:52;;;;;;;7.97;2.60;;;;;;;;;;5134616;27;20051;-64
2023/12/13 13:47:18;;;;;;;8.30;3.10;;;;;;;;;;5134749;27;20047;-64
2023/12/13 13:49:46;;;;;;;10.88;4.32;;;;;;;;;;5134160;27;20054;-64
2023/12/13 13:52:13;;;;;;;9.98;3.70;;;;;;;;;;5133946;27;20063;-64
2023/12/13 13:54:40;;;;;;;8.00;3.90;;;;;;;;;;5134578;27;20054;-64
2023/12/13 13:57:08;;;;;;;8.15;3.45;;;;;;;;;;5134041;27;20514;-63
2023/12/13 13:59:35;;;;;;;7.45;3.13;;;;;;;;;;5134330;27;20475;-63
2023/12/13 14:02:02;;;;;;;6.47;2.95;;;;;;;;;;5137670;27;20050;-63
2023/12/13 14:04:29;;;;;;;5.75;2.78;;;;;;;;;;5154762;27;20057;-63
2023/12/13 14:06:57;;;;;;;4.45;2.40;;;;;;;;;;5154542;27;20423;-63
2023/12/13 14:09:24;;;;;;;4.15;2.20;;;;;;;;;;5154872;27;20391;-63
2023/12/13 14:11:50;;;;;;;3.67;1.90;;;;;;;;;;5154283;27;20127;-63
2023/12/13 14:14:17;;;;;;;3.33;2.35;;;;;;;;;;5154486;27;20051;-63
2023/12/13 14:16:44;;;;;;;4.22;2.05;;;;;;;;;;5154875;27;20046;-63
2023/12/13 14:19:11;;;;;;;4.13;2.50;;;;;;;;;;5154640;27;20406;-63
2023/12/13 14:21:38;;;;;;;3.75;2.13;;;;;;;;;;5154535;27;20053;-63
2023/12/13 14:24:07;;;;;;;4.40;1.88;;;;;;;;;;5154371;27;20073;-64
2023/12/13 14:26:34;;;;;;;3.65;1.80;;;;;;;;;;5154898;27;20061;-64
2023/12/13 14:29:00;;;;;;;3.83;1.92;;;;;;;;;;5154546;27;20066;-64
2023/12/13 14:31:27;;;;;;;7.13;4.40;;;;;;;;;;5154212;27;20506;-64
2023/12/13 14:33:54;;;;;;;5.65;2.50;;;;;;;;;;5154237;27;20043;-64
2023/12/13 14:36:21;;;;;;;7.68;5.05;;;;;;;;;;5154711;27;20064;-64
2023/12/13 14:38:48;;;;;;;5.40;3.10;;;;;;;;;;5154306;27;20051;-64
2023/12/13 14:41:16;;;;;;;4.40;2.38;;;;;;;;;;5154683;27;20051;-64